European Causeway — C6RG7 — position and weather

sailwx.info

Track history (hours):
 
Tides and Currents Weather Stations Pressure Air Temp Water Temp Dewpoint Dewpoint Depression Visibility Wind Speed Wind Dir Waves Ship Positions

European Causeway

Operator: P & O Irish Sea

Last reported at 2014-Dec-22 09:34 UTC. Time now 2014-Dec-22 09:57 UTC.
Position N 54°51' W 005°48'.

Length 165 m; draft 5.5 m.

Type: Passenger vessel. MMSI: 311027000.

Date/timePositionNaut miles runAvg speedWind from/ knotsBaromVisibWave heightAir tempDewpointWater temp
2014-Dec-22 09:34N 54°51' W 005°48'1615.6
2014-Dec-22 08:34N 54°58' W 005°24'1312.0
2014-Dec-22 07:28N 54°58' W 005°01'0 0.0
2014-Dec-22 06:33N 54°58' W 005°01'5 4.7
2014-Dec-22 05:30N 55°02' W 005°07'1920.6
2014-Dec-22 04:33N 54°54' W 005°37'7 6.7
2014-Dec-22 03:34N 54°51' W 005°48'0 0.0
2014-Dec-22 02:33N 54°51' W 005°48'0 0.0
2014-Dec-22 01:34N 54°51' W 005°48'7 7.4
2014-Dec-22 00:33N 54°55' W 005°37'1817.7
2014-Dec-21 23:34N 55°02' W 005°09'6 6.0
2014-Dec-21 22:33N 54°58' W 005°01'8 6.2
2014-Dec-21 21:14N 54°60' W 005°15'1318.5
2014-Dec-21 20:33N 54°54' W 005°35'8 7.3
2014-Dec-21 19:24N 54°51' W 005°48'0 0.0
2014-Dec-21 18:33N 54°51' W 005°48'1514.8
2014-Dec-21 17:33N 54°58' W 005°26'1414.0
2014-Dec-21 16:33N 54°58' W 005°01'0 0.3
2014-Dec-21 15:33N 54°58' W 005°01'5 5.2
2014-Dec-21 14:33N 55°01' W 005°07'1818.1
2014-Dec-21 13:34N 54°54' W 005°36'8 7.8
2014-Dec-21 12:33N 54°51' W 005°48'0 0.0
2014-Dec-21 11:33N 54°51' W 005°48'0 0.0
2014-Dec-21 10:33N 54°51' W 005°48'0 0.0
2014-Dec-21 09:33N 54°51' W 005°48'1717.0
2014-Dec-21 08:34N 54°59' W 005°22'1211.0
2014-Dec-21 07:28N 54°58' W 005°01'0 0.0
2014-Dec-21 06:22N 54°58' W 005°01'0 0.0
2014-Dec-21 05:25N 54°58' W 005°01'0 0.0
2014-Dec-21 04:28N 54°58' W 005°01'0 0.0
2014-Dec-21 03:31N 54°58' W 005°01'0 0.0
2014-Dec-21 02:31N 54°58' W 005°01'0 0.0
2014-Dec-21 01:25N 54°58' W 005°01'0 0.0
2014-Dec-21 00:28N 54°58' W 005°01'0 0.0
2014-Dec-20 23:28N 54°58' W 005°01'0 0.0
2014-Dec-20 22:16N 54°58' W 005°01'5 6.5
2014-Dec-20 21:27N 55°02' W 005°07'1718.5
2014-Dec-20 20:33N 54°55' W 005°34'9 8.8
2014-Dec-20 19:32N 54°51' W 005°48'0 0.0
2014-Dec-20 18:34N 54°51' W 005°48'1414.1
2014-Dec-20 17:33N 54°58' W 005°26'1413.8
2014-Dec-20 16:31N 54°58' W 005°01'0 0.0
2014-Dec-20 15:33N 54°58' W 005°01'1211.8
2014-Dec-20 14:33N 54°58' W 005°22'1716.1
2014-Dec-20 13:32N 54°51' W 005°48'0 0.0
2014-Dec-20 12:33N 54°51' W 005°48'1515.0
2014-Dec-20 11:34N 54°58' W 005°25'1413.8
2014-Dec-20 10:33N 54°58' W 005°01'1 0.9
2014-Dec-20 09:18N 54°59' W 005°02'1316.3
2014-Dec-20 08:32N 54°57' W 005°24'1515.2
2014-Dec-20 07:33N 54°51' W 005°48'0 0.0
2014-Dec-20 06:34N 54°51' W 005°48'1312.6
2014-Dec-20 05:33N 54°57' W 005°29'1514.2
2014-Dec-20 04:30N 54°59' W 005°03'2 1.7
2014-Dec-20 03:34N 54°58' W 005°01'0 0.0
2014-Dec-20 02:34N 54°58' W 005°01'5 4.9
2014-Dec-20 01:30N 55°02' W 005°07'1920.7
2014-Dec-20 00:33N 54°54' W 005°38'6 6.4
2014-Dec-19 23:33N 54°51' W 005°48'0 0.0
2014-Dec-19 22:33N 54°51' W 005°48'9 8.9
2014-Dec-19 21:30N 54°56' W 005°34'1817.9
2014-Dec-19 20:30N 54°59' W 005°03'2 1.9
2014-Dec-19 19:20N 54°58' W 005°01'0 0.0
2014-Dec-19 18:33N 54°58' W 005°01'1211.8
2014-Dec-19 17:33N 54°58' W 005°21'1716.3
2014-Dec-19 16:32N 54°51' W 005°48'0 0.0
2014-Dec-19 15:33N 54°51' W 005°48'1716.6
2014-Dec-19 14:34N 54°59' W 005°22'1212.3
2014-Dec-19 13:33N 54°58' W 005°01'0 0.0
2014-Dec-19 12:33N 54°58' W 005°01'1312.8
2014-Dec-19 11:34N 54°57' W 005°23'1615.6
2014-Dec-19 10:33N 54°51' W 005°48'0 0.0
2014-Dec-19 09:33N 54°51' W 005°48'2219.1
2014-Dec-19 08:23N 55°02' W 005°14'9 9.6
2014-Dec-19 07:30N 54°58' W 005°01'0 0.0
2014-Dec-19 06:33N 54°58' W 005°01'6 6.3
2014-Dec-19 05:33N 55°01' W 005°10'1817.9
2014-Dec-19 04:33N 54°54' W 005°38'6 6.4
2014-Dec-19 03:34N 54°51' W 005°48'0 0.0
2014-Dec-19 02:33N 54°51' W 005°48'7 7.2
2014-Dec-19 01:33N 54°55' W 005°37'1919.0
2014-Dec-19 00:33N 55°02' W 005°07'5 5.3
2014-Dec-18 23:33N 54°58' W 005°01'6 3.0
2014-Dec-18 21:25N 55°01' W 005°10'1820.4
2014-Dec-18 20:33N 54°53' W 005°38'6 6.0
2014-Dec-18 19:30N 54°51' W 005°48'0 0.0
2014-Dec-18 18:33N 54°51' W 005°48'1918.2
2014-Dec-18 17:32N 54°60' W 005°19'1111.0
2014-Dec-18 16:33N 54°58' W 005°01'0 0.0
2014-Dec-18 15:34N 54°58' W 005°01'1110.9
2014-Dec-18 14:34N 54°58' W 005°20'1817.5
2014-Dec-18 13:34N 54°51' W 005°48'0 0.1
2014-Dec-18 12:33N 54°51' W 005°48'1616.5
2014-Dec-18 11:33N 54°59' W 005°23'1211.0
2014-Dec-18 10:26N 54°58' W 005°01'0 0.1
2014-Dec-18 09:33N 54°58' W 005°01'1414.0
2014-Dec-18 08:33N 54°57' W 005°25'1413.4
2014-Dec-18 07:30N 54°51' W 005°48'0 0.0
2014-Dec-18 06:33N 54°51' W 005°48'1312.7
2014-Dec-18 05:32N 54°57' W 005°28'1515.5
2014-Dec-18 04:33N 54°58' W 005°02'1 0.8
2014-Dec-18 03:28N 54°58' W 005°01'0 0.0
2014-Dec-18 02:31N 54°58' W 005°01'6 6.1
2014-Dec-18 01:33N 55°02' W 005°09'1918.6
2014-Dec-18 00:34N 54°54' W 005°38'6 6.3
2014-Dec-17 23:33N 54°51' W 005°48'0 0.0
2014-Dec-17 22:33N 54°51' W 005°48'9 8.3
2014-Dec-17 21:31N 54°55' W 005°35'1816.9
2014-Dec-17 20:26N 55°01' W 005°04'4 1.9
2014-Dec-17 18:31N 54°58' W 005°01'1313.8
2014-Dec-17 17:33N 54°57' W 005°24'1514.2
2014-Dec-17 16:30N 54°51' W 005°48'0 0.0
2014-Dec-17 15:33N 54°51' W 005°48'1515.2
2014-Dec-17 14:33N 54°58' W 005°25'1413.0
2014-Dec-17 13:30N 54°58' W 005°01'0 0.1
2014-Dec-17 12:27N 54°58' W 005°01'1213.2
2014-Dec-17 11:33N 54°58' W 005°22'1716.3
2014-Dec-17 10:33N 54°51' W 005°48'0 0.0
2014-Dec-17 09:33N 54°51' W 005°48'1818.2
2014-Dec-17 08:33N 54°59' W 005°20'1110.1
2014-Dec-17 07:28N 54°58' W 005°01'0 0.0
2014-Dec-17 06:31N 54°58' W 005°01'6 6.2
2014-Dec-17 05:33N 55°01' W 005°09'1817.8
2014-Dec-17 04:33N 54°54' W 005°37'7 6.8
2014-Dec-17 03:33N 54°51' W 005°48'0 0.0
2014-Dec-17 02:32N 54°51' W 005°48'6 6.3
2014-Dec-17 01:34N 54°54' W 005°39'1817.9
2014-Dec-17 00:34N 55°01' W 005°10'6 6.4
2014-Dec-16 23:33N 54°58' W 005°01'0 0.0
2014-Dec-16 22:07N 54°58' W 005°01'610.2
2014-Dec-16 21:33N 55°01' W 005°08'2120.7
2014-Dec-16 20:33N 54°53' W 005°41'4 4.0
2014-Dec-16 19:27N 54°51' W 005°48'1 0.6
2014-Dec-16 18:33N 54°51' W 005°48'1717.3
2014-Dec-16 17:33N 54°59' W 005°21'1211.6
2014-Dec-16 16:33N 54°58' W 005°01'0 0.0
2014-Dec-16 15:33N 54°58' W 005°01'1111.5
2014-Dec-16 14:33N 54°58' W 005°21'1716.9
2014-Dec-16 13:33N 54°51' W 005°48'0 0.0
2014-Dec-16 12:33N 54°51' W 005°48'1615.8
2014-Dec-16 11:33N 54°58' W 005°24'1313.0
2014-Dec-16 10:33N 54°58' W 005°01'0 0.0
2014-Dec-16 09:33N 54°58' W 005°01'1211.7
2014-Dec-16 08:34N 54°58' W 005°21'1716.7
2014-Dec-16 07:33N 54°51' W 005°48'0 0.1
2014-Dec-16 06:33N 54°51' W 005°48'6 6.5
2014-Dec-16 05:33N 54°54' W 005°38'2118.4
2014-Dec-16 04:26N 54°59' W 005°03'2 2.6
2014-Dec-16 03:33N 54°58' W 005°01'0 0.0
2014-Dec-16 02:33N 54°58' W 005°01'8 6.9
2014-Dec-16 01:27N 55°00' W 005°13'1517.1
2014-Dec-16 00:33N 54°54' W 005°38'7 6.7
2014-Dec-15 23:33N 54°51' W 005°48'0 0.0
2014-Dec-15 22:29N 54°51' W 005°48'5 5.7
2014-Dec-15 21:34N 54°54' W 005°40'1717.4
2014-Dec-15 20:33N 55°01' W 005°13'7 7.1
2014-Dec-15 19:30N 54°58' W 005°01'0 0.0
2014-Dec-15 18:34N 54°58' W 005°01'1111.5
2014-Dec-15 17:33N 54°58' W 005°21'1716.9
2014-Dec-15 16:33N 54°51' W 005°48'0 0.1
2014-Dec-15 15:34N 54°51' W 005°48'1414.1
2014-Dec-15 14:34N 54°58' W 005°26'1414.0
2014-Dec-15 13:33N 54°58' W 005°02'0 0.4
2014-Dec-15 12:33N 54°58' W 005°01'1110.8
2014-Dec-15 11:33N 54°58' W 005°20'1817.7
2014-Dec-15 10:34N 54°51' W 005°48'0 0.1
2014-Dec-15 09:33N 54°51' W 005°48'1515.0
2014-Dec-15 08:33N 54°59' W 005°26'1513.7
2014-Dec-15 07:30N 54°58' W 005°01'0 0.0
2014-Dec-15 06:33N 54°58' W 005°01'6 6.0
2014-Dec-15 05:33N 55°01' W 005°09'1918.7
2014-Dec-15 04:33N 54°53' W 005°39'6 5.8
2014-Dec-15 03:33N 54°51' W 005°48'0 0.0
2014-Dec-15 02:34N 54°51' W 005°48'0 0.0
2014-Dec-15 01:34N 54°51' W 005°48'6 6.4
2014-Dec-15 00:33N 54°54' W 005°38'1817.7
2014-Dec-14 23:33N 55°01' W 005°10'7 6.6
2014-Dec-14 22:34N 54°58' W 005°01'6 5.6
2014-Dec-14 21:33N 55°01' W 005°08'1818.0
2014-Dec-14 20:33N 54°54' W 005°37'7 6.9
2014-Dec-14 19:30N 54°51' W 005°48'0 0.0
2014-Dec-14 18:33N 54°51' W 005°48'1514.7
2014-Dec-14 17:33N 54°58' W 005°25'1413.8
2014-Dec-14 16:33N 54°58' W 005°01'0 0.3
2014-Dec-14 15:33N 54°58' W 005°01'5 4.8
2014-Dec-14 14:30N 55°01' W 005°07'1717.6
2014-Dec-14 13:34N 54°55' W 005°33'9 9.2
2014-Dec-14 12:33N 54°51' W 005°48'0 0.0
2014-Dec-14 11:33N 54°51' W 005°48'0 0.0
2014-Dec-14 10:15N 54°51' W 005°48'0 0.1
2014-Dec-14 09:32N 54°51' W 005°48'1616.0
2014-Dec-14 08:33N 54°59' W 005°25'1412.9
2014-Dec-14 07:30N 54°58' W 005°01'0 0.0
2014-Dec-14 06:33N 54°58' W 005°01'0 0.0
2014-Dec-14 05:33N 54°58' W 005°01'0 0.0
2014-Dec-14 04:33N 54°58' W 005°01'0 0.0
2014-Dec-14 03:33N 54°58' W 005°01'0 0.0
2014-Dec-14 02:33N 54°58' W 005°01'0 0.0
2014-Dec-14 01:34N 54°58' W 005°01'0 0.0
2014-Dec-14 00:33N 54°58' W 005°01'0 0.0
2014-Dec-13 23:34N 54°58' W 005°01'0 0.0
2014-Dec-13 22:33N 54°58' W 005°01'5 4.7
2014-Dec-13 21:27N 55°02' W 005°07'1718.7
2014-Dec-13 20:33N 54°55' W 005°34'9 8.6
2014-Dec-13 19:30N 54°51' W 005°48'0 0.0
2014-Dec-13 18:33N 54°51' W 005°48'1312.6
2014-Dec-13 17:33N 54°57' W 005°29'1515.1
2014-Dec-13 16:33N 54°59' W 005°03'2 1.7
2014-Dec-13 15:33N 54°58' W 005°01'1111.4
2014-Dec-13 14:34N 54°57' W 005°21'1716.9
2014-Dec-13 13:33N 54°51' W 005°48'0 0.0
2014-Dec-13 12:33N 54°51' W 005°48'1514.5
2014-Dec-13 11:33N 54°58' W 005°26'1414.1
2014-Dec-13 10:33N 54°58' W 005°01'0 0.1
2014-Dec-13 09:34N 54°58' W 005°01'1111.3
2014-Dec-13 08:34N 54°58' W 005°21'1717.1
2014-Dec-13 07:33N 54°51' W 005°48'0 0.1
2014-Dec-13 06:34N 54°51' W 005°48'7 7.4
2014-Dec-13 05:33N 54°55' W 005°37'2018.6
2014-Dec-13 04:29N 54°59' W 005°03'2 2.3
2014-Dec-13 03:34N 54°58' W 005°01'0 0.0
2014-Dec-13 02:33N 54°58' W 005°01'5 4.8
2014-Dec-13 01:30N 55°02' W 005°07'1920.0
2014-Dec-13 00:34N 54°54' W 005°36'7 7.2
2014-Dec-12 23:33N 54°51' W 005°48'0 0.0
2014-Dec-12 22:33N 54°51' W 005°48'1818.3
2014-Dec-12 21:33N 54°60' W 005°20'1110.8
2014-Dec-12 20:31N 54°58' W 005°01'0 0.0
2014-Dec-12 19:28N 54°58' W 005°01'1010.4
2014-Dec-12 18:34N 54°60' W 005°17'2019.6
2014-Dec-12 17:33N 54°51' W 005°48'0 0.1
2014-Dec-12 16:33N 54°51' W 005°48'1514.5
2014-Dec-12 15:33N 54°58' W 005°26'1414.2
2014-Dec-12 14:33N 54°58' W 005°01'0 0.0
2014-Dec-12 13:31N 54°58' W 005°01'8 8.8
2014-Dec-12 12:34N 54°60' W 005°15'2120.7
2014-Dec-12 11:33N 54°51' W 005°48'0 0.1
2014-Dec-12 10:33N 54°51' W 005°48'  
Track history (hours):
 
Tides and Currents Weather Stations Pressure Air Temp Water Temp Dewpoint Dewpoint Depression Visibility Wind Speed Wind Dir Waves Ship Positions

European Causeway

Operator: P & O Irish Sea

Last reported at 2014-Dec-22 09:34 UTC. Time now 2014-Dec-22 09:57 UTC.
Position N 54°51' W 005°48'.

Length 165 m; draft 5.5 m.

Type: Passenger vessel. MMSI: 311027000.

Date/timePositionNaut miles runAvg speedWind from/ knotsBaromVisibWave heightAir tempDewpointWater temp
2014-Dec-22 09:34N 54°51' W 005°48'1615.6
2014-Dec-22 08:34N 54°58' W 005°24'1312.0
2014-Dec-22 07:28N 54°58' W 005°01'0 0.0
2014-Dec-22 06:33N 54°58' W 005°01'5 4.7
2014-Dec-22 05:30N 55°02' W 005°07'1920.6
2014-Dec-22 04:33N 54°54' W 005°37'7 6.7
2014-Dec-22 03:34N 54°51' W 005°48'0 0.0
2014-Dec-22 02:33N 54°51' W 005°48'0 0.0
2014-Dec-22 01:34N 54°51' W 005°48'7 7.4
2014-Dec-22 00:33N 54°55' W 005°37'1817.7
2014-Dec-21 23:34N 55°02' W 005°09'6 6.0
2014-Dec-21 22:33N 54°58' W 005°01'8 6.2
2014-Dec-21 21:14N 54°60' W 005°15'1318.5
2014-Dec-21 20:33N 54°54' W 005°35'8 7.3
2014-Dec-21 19:24N 54°51' W 005°48'0 0.0
2014-Dec-21 18:33N 54°51' W 005°48'1514.8
2014-Dec-21 17:33N 54°58' W 005°26'1414.0
2014-Dec-21 16:33N 54°58' W 005°01'0 0.3
2014-Dec-21 15:33N 54°58' W 005°01'5 5.2
2014-Dec-21 14:33N 55°01' W 005°07'1818.1
2014-Dec-21 13:34N 54°54' W 005°36'8 7.8
2014-Dec-21 12:33N 54°51' W 005°48'0 0.0
2014-Dec-21 11:33N 54°51' W 005°48'0 0.0
2014-Dec-21 10:33N 54°51' W 005°48'0 0.0
2014-Dec-21 09:33N 54°51' W 005°48'1717.0
2014-Dec-21 08:34N 54°59' W 005°22'1211.0
2014-Dec-21 07:28N 54°58' W 005°01'0 0.0
2014-Dec-21 06:22N 54°58' W 005°01'0 0.0
2014-Dec-21 05:25N 54°58' W 005°01'0 0.0
2014-Dec-21 04:28N 54°58' W 005°01'0 0.0
2014-Dec-21 03:31N 54°58' W 005°01'0 0.0
2014-Dec-21 02:31N 54°58' W 005°01'0 0.0
2014-Dec-21 01:25N 54°58' W 005°01'0 0.0
2014-Dec-21 00:28N 54°58' W 005°01'0 0.0
2014-Dec-20 23:28N 54°58' W 005°01'0 0.0
2014-Dec-20 22:16N 54°58' W 005°01'5 6.5
2014-Dec-20 21:27N 55°02' W 005°07'1718.5
2014-Dec-20 20:33N 54°55' W 005°34'9 8.8
2014-Dec-20 19:32N 54°51' W 005°48'0 0.0
2014-Dec-20 18:34N 54°51' W 005°48'1414.1
2014-Dec-20 17:33N 54°58' W 005°26'1413.8
2014-Dec-20 16:31N 54°58' W 005°01'0 0.0
2014-Dec-20 15:33N 54°58' W 005°01'1211.8
2014-Dec-20 14:33N 54°58' W 005°22'1716.1
2014-Dec-20 13:32N 54°51' W 005°48'0 0.0
2014-Dec-20 12:33N 54°51' W 005°48'1515.0
2014-Dec-20 11:34N 54°58' W 005°25'1413.8
2014-Dec-20 10:33N 54°58' W 005°01'1 0.9
2014-Dec-20 09:18N 54°59' W 005°02'1316.3
2014-Dec-20 08:32N 54°57' W 005°24'1515.2
2014-Dec-20 07:33N 54°51' W 005°48'0 0.0
2014-Dec-20 06:34N 54°51' W 005°48'1312.6
2014-Dec-20 05:33N 54°57' W 005°29'1514.2
2014-Dec-20 04:30N 54°59' W 005°03'2 1.7
2014-Dec-20 03:34N 54°58' W 005°01'0 0.0
2014-Dec-20 02:34N 54°58' W 005°01'5 4.9
2014-Dec-20 01:30N 55°02' W 005°07'1920.7
2014-Dec-20 00:33N 54°54' W 005°38'6 6.4
2014-Dec-19 23:33N 54°51' W 005°48'0 0.0
2014-Dec-19 22:33N 54°51' W 005°48'9 8.9
2014-Dec-19 21:30N 54°56' W 005°34'1817.9
2014-Dec-19 20:30N 54°59' W 005°03'2 1.9
2014-Dec-19 19:20N 54°58' W 005°01'0 0.0
2014-Dec-19 18:33N 54°58' W 005°01'1211.8
2014-Dec-19 17:33N 54°58' W 005°21'1716.3
2014-Dec-19 16:32N 54°51' W 005°48'0 0.0
2014-Dec-19 15:33N 54°51' W 005°48'1716.6
2014-Dec-19 14:34N 54°59' W 005°22'1212.3
2014-Dec-19 13:33N 54°58' W 005°01'0 0.0
2014-Dec-19 12:33N 54°58' W 005°01'1312.8
2014-Dec-19 11:34N 54°57' W 005°23'1615.6
2014-Dec-19 10:33N 54°51' W 005°48'0 0.0
2014-Dec-19 09:33N 54°51' W 005°48'2219.1
2014-Dec-19 08:23N 55°02' W 005°14'9 9.6
2014-Dec-19 07:30N 54°58' W 005°01'0 0.0
2014-Dec-19 06:33N 54°58' W 005°01'6 6.3
2014-Dec-19 05:33N 55°01' W 005°10'1817.9
2014-Dec-19 04:33N 54°54' W 005°38'6 6.4
2014-Dec-19 03:34N 54°51' W 005°48'0 0.0
2014-Dec-19 02:33N 54°51' W 005°48'7 7.2
2014-Dec-19 01:33N 54°55' W 005°37'1919.0
2014-Dec-19 00:33N 55°02' W 005°07'5 5.3
2014-Dec-18 23:33N 54°58' W 005°01'6 3.0
2014-Dec-18 21:25N 55°01' W 005°10'1820.4
2014-Dec-18 20:33N 54°53' W 005°38'6 6.0
2014-Dec-18 19:30N 54°51' W 005°48'0 0.0
2014-Dec-18 18:33N 54°51' W 005°48'1918.2
2014-Dec-18 17:32N 54°60' W 005°19'1111.0
2014-Dec-18 16:33N 54°58' W 005°01'0 0.0
2014-Dec-18 15:34N 54°58' W 005°01'1110.9
2014-Dec-18 14:34N 54°58' W 005°20'1817.5
2014-Dec-18 13:34N 54°51' W 005°48'0 0.1
2014-Dec-18 12:33N 54°51' W 005°48'1616.5
2014-Dec-18 11:33N 54°59' W 005°23'1211.0
2014-Dec-18 10:26N 54°58' W 005°01'0 0.1
2014-Dec-18 09:33N 54°58' W 005°01'1414.0
2014-Dec-18 08:33N 54°57' W 005°25'1413.4
2014-Dec-18 07:30N 54°51' W 005°48'0 0.0
2014-Dec-18 06:33N 54°51' W 005°48'1312.7
2014-Dec-18 05:32N 54°57' W 005°28'1515.5
2014-Dec-18 04:33N 54°58' W 005°02'1 0.8
2014-Dec-18 03:28N 54°58' W 005°01'0 0.0
2014-Dec-18 02:31N 54°58' W 005°01'6 6.1
2014-Dec-18 01:33N 55°02' W 005°09'1918.6
2014-Dec-18 00:34N 54°54' W 005°38'6 6.3
2014-Dec-17 23:33N 54°51' W 005°48'0 0.0
2014-Dec-17 22:33N 54°51' W 005°48'9 8.3
2014-Dec-17 21:31N 54°55' W 005°35'1816.9
2014-Dec-17 20:26N 55°01' W 005°04'4 1.9
2014-Dec-17 18:31N 54°58' W 005°01'1313.8
2014-Dec-17 17:33N 54°57' W 005°24'1514.2
2014-Dec-17 16:30N 54°51' W 005°48'0 0.0
2014-Dec-17 15:33N 54°51' W 005°48'1515.2
2014-Dec-17 14:33N 54°58' W 005°25'1413.0
2014-Dec-17 13:30N 54°58' W 005°01'0 0.1
2014-Dec-17 12:27N 54°58' W 005°01'1213.2
2014-Dec-17 11:33N 54°58' W 005°22'1716.3
2014-Dec-17 10:33N 54°51' W 005°48'0 0.0
2014-Dec-17 09:33N 54°51' W 005°48'1818.2
2014-Dec-17 08:33N 54°59' W 005°20'1110.1
2014-Dec-17 07:28N 54°58' W 005°01'0 0.0
2014-Dec-17 06:31N 54°58' W 005°01'6 6.2
2014-Dec-17 05:33N 55°01' W 005°09'1817.8
2014-Dec-17 04:33N 54°54' W 005°37'7 6.8
2014-Dec-17 03:33N 54°51' W 005°48'0 0.0
2014-Dec-17 02:32N 54°51' W 005°48'6 6.3
2014-Dec-17 01:34N 54°54' W 005°39'1817.9
2014-Dec-17 00:34N 55°01' W 005°10'6 6.4
2014-Dec-16 23:33N 54°58' W 005°01'0 0.0
2014-Dec-16 22:07N 54°58' W 005°01'610.2
2014-Dec-16 21:33N 55°01' W 005°08'2120.7
2014-Dec-16 20:33N 54°53' W 005°41'4 4.0
2014-Dec-16 19:27N 54°51' W 005°48'1 0.6
2014-Dec-16 18:33N 54°51' W 005°48'1717.3
2014-Dec-16 17:33N 54°59' W 005°21'1211.6
2014-Dec-16 16:33N 54°58' W 005°01'0 0.0
2014-Dec-16 15:33N 54°58' W 005°01'1111.5
2014-Dec-16 14:33N 54°58' W 005°21'1716.9
2014-Dec-16 13:33N 54°51' W 005°48'0 0.0
2014-Dec-16 12:33N 54°51' W 005°48'1615.8
2014-Dec-16 11:33N 54°58' W 005°24'1313.0
2014-Dec-16 10:33N 54°58' W 005°01'0 0.0
2014-Dec-16 09:33N 54°58' W 005°01'1211.7
2014-Dec-16 08:34N 54°58' W 005°21'1716.7
2014-Dec-16 07:33N 54°51' W 005°48'0 0.1
2014-Dec-16 06:33N 54°51' W 005°48'6 6.5
2014-Dec-16 05:33N 54°54' W 005°38'2118.4
2014-Dec-16 04:26N 54°59' W 005°03'2 2.6
2014-Dec-16 03:33N 54°58' W 005°01'0 0.0
2014-Dec-16 02:33N 54°58' W 005°01'8 6.9
2014-Dec-16 01:27N 55°00' W 005°13'1517.1
2014-Dec-16 00:33N 54°54' W 005°38'7 6.7
2014-Dec-15 23:33N 54°51' W 005°48'0 0.0
2014-Dec-15 22:29N 54°51' W 005°48'5 5.7
2014-Dec-15 21:34N 54°54' W 005°40'1717.4
2014-Dec-15 20:33N 55°01' W 005°13'7 7.1
2014-Dec-15 19:30N 54°58' W 005°01'0 0.0
2014-Dec-15 18:34N 54°58' W 005°01'1111.5
2014-Dec-15 17:33N 54°58' W 005°21'1716.9
2014-Dec-15 16:33N 54°51' W 005°48'0 0.1
2014-Dec-15 15:34N 54°51' W 005°48'1414.1
2014-Dec-15 14:34N 54°58' W 005°26'1414.0
2014-Dec-15 13:33N 54°58' W 005°02'0 0.4
2014-Dec-15 12:33N 54°58' W 005°01'1110.8
2014-Dec-15 11:33N 54°58' W 005°20'1817.7
2014-Dec-15 10:34N 54°51' W 005°48'0 0.1
2014-Dec-15 09:33N 54°51' W 005°48'1515.0
2014-Dec-15 08:33N 54°59' W 005°26'1513.7
2014-Dec-15 07:30N 54°58' W 005°01'0 0.0
2014-Dec-15 06:33N 54°58' W 005°01'6 6.0
2014-Dec-15 05:33N 55°01' W 005°09'1918.7
2014-Dec-15 04:33N 54°53' W 005°39'6 5.8
2014-Dec-15 03:33N 54°51' W 005°48'0 0.0
2014-Dec-15 02:34N 54°51' W 005°48'0 0.0
2014-Dec-15 01:34N 54°51' W 005°48'6 6.4
2014-Dec-15 00:33N 54°54' W 005°38'1817.7
2014-Dec-14 23:33N 55°01' W 005°10'7 6.6
2014-Dec-14 22:34N 54°58' W 005°01'6 5.6
2014-Dec-14 21:33N 55°01' W 005°08'1818.0
2014-Dec-14 20:33N 54°54' W 005°37'7 6.9
2014-Dec-14 19:30N 54°51' W 005°48'0 0.0
2014-Dec-14 18:33N 54°51' W 005°48'1514.7
2014-Dec-14 17:33N 54°58' W 005°25'1413.8
2014-Dec-14 16:33N 54°58' W 005°01'0 0.3
2014-Dec-14 15:33N 54°58' W 005°01'5 4.8
2014-Dec-14 14:30N 55°01' W 005°07'1717.6
2014-Dec-14 13:34N 54°55' W 005°33'9 9.2
2014-Dec-14 12:33N 54°51' W 005°48'0 0.0
2014-Dec-14 11:33N 54°51' W 005°48'0 0.0
2014-Dec-14 10:15N 54°51' W 005°48'0 0.1
2014-Dec-14 09:32N 54°51' W 005°48'1616.0
2014-Dec-14 08:33N 54°59' W 005°25'1412.9
2014-Dec-14 07:30N 54°58' W 005°01'0 0.0
2014-Dec-14 06:33N 54°58' W 005°01'0 0.0
2014-Dec-14 05:33N 54°58' W 005°01'0 0.0
2014-Dec-14 04:33N 54°58' W 005°01'0 0.0
2014-Dec-14 03:33N 54°58' W 005°01'0 0.0
2014-Dec-14 02:33N 54°58' W 005°01'0 0.0
2014-Dec-14 01:34N 54°58' W 005°01'0 0.0
2014-Dec-14 00:33N 54°58' W 005°01'0 0.0
2014-Dec-13 23:34N 54°58' W 005°01'0 0.0
2014-Dec-13 22:33N 54°58' W 005°01'5 4.7
2014-Dec-13 21:27N 55°02' W 005°07'1718.7
2014-Dec-13 20:33N 54°55' W 005°34'9 8.6
2014-Dec-13 19:30N 54°51' W 005°48'0 0.0
2014-Dec-13 18:33N 54°51' W 005°48'1312.6
2014-Dec-13 17:33N 54°57' W 005°29'1515.1
2014-Dec-13 16:33N 54°59' W 005°03'2 1.7
2014-Dec-13 15:33N 54°58' W 005°01'1111.4
2014-Dec-13 14:34N 54°57' W 005°21'1716.9
2014-Dec-13 13:33N 54°51' W 005°48'0 0.0
2014-Dec-13 12:33N 54°51' W 005°48'1514.5
2014-Dec-13 11:33N 54°58' W 005°26'1414.1
2014-Dec-13 10:33N 54°58' W 005°01'0 0.1
2014-Dec-13 09:34N 54°58' W 005°01'1111.3
2014-Dec-13 08:34N 54°58' W 005°21'1717.1
2014-Dec-13 07:33N 54°51' W 005°48'0 0.1
2014-Dec-13 06:34N 54°51' W 005°48'7 7.4
2014-Dec-13 05:33N 54°55' W 005°37'2018.6
2014-Dec-13 04:29N 54°59' W 005°03'2 2.3
2014-Dec-13 03:34N 54°58' W 005°01'0 0.0
2014-Dec-13 02:33N 54°58' W 005°01'5 4.8
2014-Dec-13 01:30N 55°02' W 005°07'1920.0
2014-Dec-13 00:34N 54°54' W 005°36'7 7.2
2014-Dec-12 23:33N 54°51' W 005°48'0 0.0
2014-Dec-12 22:33N 54°51' W 005°48'1818.3
2014-Dec-12 21:33N 54°60' W 005°20'1110.8
2014-Dec-12 20:31N 54°58' W 005°01'0 0.0
2014-Dec-12 19:28N 54°58' W 005°01'1010.4
2014-Dec-12 18:34N 54°60' W 005°17'2019.6
2014-Dec-12 17:33N 54°51' W 005°48'0 0.1
2014-Dec-12 16:33N 54°51' W 005°48'1514.5
2014-Dec-12 15:33N 54°58' W 005°26'1414.2
2014-Dec-12 14:33N 54°58' W 005°01'0 0.0
2014-Dec-12 13:31N 54°58' W 005°01'8 8.8
2014-Dec-12 12:34N 54°60' W 005°15'2120.7
2014-Dec-12 11:33N 54°51' W 005°48'0 0.1
2014-Dec-12 10:33N 54°51' W 005°48'  

Dump ship's entire track history